createdAt,value
2023-03-07T00:01:36.773Z,96371.25
2023-03-07T00:04:07.903Z,96362.47
2023-03-07T00:06:40.674Z,96365.47
2023-03-07T00:09:10.955Z,96359.63
2023-03-07T00:11:41.421Z,96356.28
2023-03-07T00:14:11.975Z,96363.44
2023-03-07T00:16:42.346Z,96369.31
2023-03-07T00:19:12.810Z,96366.56
2023-03-07T00:21:45.741Z,96371.91
2023-03-07T00:24:16.064Z,96370.06
2023-03-07T00:26:46.402Z,96362.78
2023-03-07T00:29:16.769Z,96357.03
2023-03-07T00:31:47.160Z,96359.94
2023-03-07T00:34:17.624Z,96357.19
2023-03-07T00:36:50.656Z,96348.84
2023-03-07T00:39:21.046Z,96348.22
2023-03-07T00:41:51.323Z,96339.72
2023-03-07T00:44:22.654Z,96339.13
2023-03-07T00:46:52.728Z,96333.66
2023-03-07T00:49:23.099Z,96325.59
2023-03-07T00:51:56.245Z,96330.78
2023-03-07T00:54:26.967Z,96321.78
2023-03-07T00:56:57.647Z,96314.22
2023-03-07T00:59:28.150Z,96318.44
2023-03-07T01:01:58.512Z,96311.03
2023-03-07T01:04:28.923Z,96312.09
2023-03-07T01:07:01.954Z,96300.09
2023-03-07T01:09:32.306Z,96304.19
2023-03-07T01:12:03.157Z,96300.09
2023-03-07T01:14:33.544Z,96296.94
2023-03-07T01:17:04.092Z,96291.91
2023-03-07T01:19:34.389Z,96292.97
2023-03-07T01:22:07.557Z,96289.31
2023-03-07T01:24:37.867Z,96284.94
2023-03-07T01:27:08.783Z,96282.97
2023-03-07T01:29:39.399Z,96280.53
2023-03-07T01:32:10.170Z,96272.66
2023-03-07T01:34:40.888Z,96270.22
2023-03-07T01:37:13.876Z,96253.81
2023-03-07T01:39:44.210Z,96262.19
2023-03-07T01:42:18.935Z,96254.88
2023-03-07T01:45:06.287Z,96249.72
2023-03-07T01:47:44.252Z,96240.63
2023-03-07T01:50:18.327Z,96240.47
2023-03-07T01:52:56.391Z,96232.25
2023-03-07T01:55:32.243Z,96239.84
2023-03-07T01:58:17.211Z,96242.56
2023-03-07T02:00:48.674Z,96230.13
2023-03-07T02:03:29.526Z,96235.31
2023-03-07T02:06:03.102Z,96226.50
2023-03-07T02:08:38.606Z,96228.28
2023-03-07T02:11:10.048Z,96227.69
2023-03-07T02:13:40.593Z,96222.56
2023-03-07T02:16:11.806Z,96217.25
2023-03-07T02:18:49.994Z,96212.09
2023-03-07T02:21:36.119Z,96210.25
2023-03-07T02:24:20.608Z,96203.13
2023-03-07T02:26:56.191Z,96198.59
2023-03-07T02:29:27.341Z,96191.91
2023-03-07T02:31:57.719Z,96193.72
2023-03-07T02:34:30.887Z,96182.22
2023-03-07T02:37:15.665Z,96182.22
2023-03-07T02:39:49.335Z,96178.72
2023-03-07T02:42:26.841Z,96176.44
2023-03-07T02:45:10.392Z,96173.09
2023-03-07T02:47:42.937Z,96174.91
2023-03-07T02:50:17.210Z,96167.66
2023-03-07T02:52:51.196Z,96148.25
2023-03-07T02:55:21.847Z,96155.38
2023-03-07T02:58:02.358Z,96158.69
2023-03-07T03:00:32.904Z,96154.31
2023-03-07T03:03:03.492Z,96155.97
2023-03-07T03:05:33.950Z,96156.13
2023-03-07T03:08:04.385Z,96154.63
2023-03-07T03:10:34.672Z,96156.88
2023-03-07T03:13:08.002Z,96153.09
2023-03-07T03:15:38.453Z,96145.66
2023-03-07T03:18:08.821Z,96130.50
2023-03-07T03:20:42.277Z,96139.59
2023-03-07T03:23:12.603Z,96135.06
2023-03-07T03:25:42.978Z,96131.56
2023-03-07T03:28:16.272Z,96126.88
2023-03-07T03:30:46.597Z,96129.75
2023-03-07T03:33:16.958Z,96120.78
2023-03-07T03:35:49.248Z,96114.88
2023-03-07T03:38:20.029Z,96107.91
2023-03-07T03:40:50.842Z,96122.31
2023-03-07T03:43:24.915Z,96109.41
2023-03-07T03:46:01.436Z,96110.63
2023-03-07T03:48:32.595Z,96108.50
2023-03-07T03:51:08.291Z,96105.78
2023-03-07T03:53:41.117Z,96099.56
2023-03-07T03:56:14.699Z,96103.97
2023-03-07T03:58:51.631Z,96105.78
2023-03-07T04:01:24.429Z,96091.22
2023-03-07T04:03:56.874Z,96094.09
2023-03-07T04:06:29.231Z,96099.13
2023-03-07T04:09:00.533Z,96089.25
2023-03-07T04:11:31.004Z,96089.41
2023-03-07T04:14:04.092Z,96079.09
2023-03-07T04:16:34.460Z,96077.72
2023-03-07T04:19:04.913Z,96076.22
2023-03-07T04:21:35.493Z,96079.09
2023-03-07T04:24:06.358Z,96059.53
2023-03-07T04:26:37.325Z,96057.72
2023-03-07T04:29:10.283Z,96069.25
2023-03-07T04:32:03.337Z,96043.94
2023-03-07T04:34:33.989Z,96053.78
2023-03-07T04:37:04.767Z,96041.22
2023-03-07T04:39:35.402Z,96035.44
2023-03-07T04:42:06.693Z,96038.75
2023-03-07T04:44:42.331Z,96036.63
2023-03-07T04:47:12.726Z,96030.41
2023-03-07T04:49:43.056Z,96026.31
2023-03-07T04:52:13.684Z,96025.84
2023-03-07T04:54:45.219Z,96015.84
2023-03-07T04:57:15.532Z,96020.41
2023-03-07T04:59:49.138Z,96021.03
2023-03-07T05:02:19.715Z,96009.81
2023-03-07T05:04:50.678Z,96010.56
2023-03-07T05:07:21.145Z,96006.00
2023-03-07T05:09:53.188Z,96010.56
2023-03-07T05:12:23.817Z,96016.94
2023-03-07T05:14:57.127Z,96012.97
2023-03-07T05:17:27.427Z,96021.16
2023-03-07T05:19:57.774Z,96016.63
2023-03-07T05:22:28.844Z,96014.78
2023-03-07T05:25:00.050Z,96014.50
2023-03-07T05:27:30.709Z,96014.50
2023-03-07T05:30:03.881Z,95997.50
2023-03-07T05:32:34.241Z,96009.00
2023-03-07T05:35:05.110Z,96004.13
2023-03-07T05:37:35.781Z,96009.59
2023-03-07T05:40:09.143Z,96019.00
2023-03-07T05:42:44.751Z,96022.03
2023-03-07T05:45:22.109Z,96013.72
2023-03-07T05:47:53.173Z,96011.69
2023-03-07T05:50:24.129Z,96013.16
2023-03-07T05:52:55.128Z,96015.31
2023-03-07T05:55:28.199Z,96016.25
2023-03-07T05:57:59.867Z,96016.84
2023-03-07T06:00:34.426Z,96007.91
2023-03-07T06:03:05.948Z,96012.28
2023-03-07T06:05:37.200Z,96018.94
2023-03-07T06:08:08.602Z,96011.31
2023-03-07T06:10:40.370Z,96012.09
2023-03-07T06:13:21.823Z,96014.94
2023-03-07T06:15:57.106Z,96015.88
2023-03-07T06:18:29.182Z,96001.16
2023-03-07T06:21:05.100Z,96011.59
2023-03-07T06:23:40.192Z,95994.47
2023-03-07T06:26:15.613Z,95999.75
2023-03-07T06:28:49.269Z,95996.25
2023-03-07T06:31:23.660Z,95998.94
2023-03-07T06:33:57.730Z,95997.44
2023-03-07T06:36:31.993Z,95998.19
2023-03-07T06:39:05.107Z,95995.63
2023-03-07T06:41:37.140Z,96005.47
2023-03-07T06:44:08.676Z,96010.75
2023-03-07T06:46:41.636Z,96011.81
2023-03-07T06:49:16.843Z,96024.25
2023-03-07T06:51:50.098Z,96020.47
2023-03-07T06:54:20.944Z,96030.81
2023-03-07T06:56:51.733Z,96028.97
2023-03-07T06:59:25.644Z,96013.53
2023-03-07T07:01:58.921Z,96018.41
2023-03-07T07:04:29.468Z,96014.31
2023-03-07T07:07:00.574Z,96010.84
2023-03-07T07:09:34.308Z,96011.56
2023-03-07T07:12:06.074Z,95998.53
2023-03-07T07:14:38.236Z,96000.00
2023-03-07T07:17:11.405Z,95995.41
2023-03-07T07:19:41.755Z,95998.19
2023-03-07T07:22:12.357Z,95997.97
2023-03-07T07:24:43.026Z,96004.69
2023-03-07T07:27:17.076Z,95999.94
2023-03-07T07:29:47.524Z,96018.09
2023-03-07T07:32:21.011Z,95993.84
2023-03-07T07:34:51.692Z,95993.78
2023-03-07T07:37:24.045Z,95980.47
2023-03-07T07:39:54.909Z,96001.44
2023-03-07T07:42:25.320Z,95982.66
2023-03-07T07:45:18.284Z,95989.38
2023-03-07T07:47:55.097Z,95989.59
2023-03-07T07:50:26.599Z,95992.25
2023-03-07T07:52:57.159Z,95982.75
2023-03-07T07:55:28.669Z,95994.78
2023-03-07T07:57:59.002Z,95974.38
2023-03-07T08:00:30.048Z,95989.88
2023-03-07T08:03:03.256Z,95981.47
2023-03-07T08:05:33.534Z,95973.44
2023-03-07T08:08:04.044Z,95991.28
2023-03-07T08:10:35.668Z,95996.84
2023-03-07T08:13:06.029Z,95988.25
2023-03-07T08:15:36.516Z,96004.44
2023-03-07T08:18:11.090Z,95988.38
2023-03-07T08:20:42.183Z,95991.19
2023-03-07T08:23:12.521Z,95985.41
2023-03-07T08:25:43.066Z,96005.75
2023-03-07T08:28:13.538Z,95989.69
2023-03-07T08:30:43.947Z,96000.63
2023-03-07T08:33:16.896Z,95990.22
2023-03-07T08:35:47.270Z,96004.69
2023-03-07T08:38:17.599Z,95993.84
2023-03-07T08:40:47.873Z,95986.38
2023-03-07T08:43:18.115Z,95990.81
2023-03-07T08:45:48.496Z,96002.34
2023-03-07T08:48:21.444Z,95996.97
2023-03-07T08:50:53.709Z,95994.53
2023-03-07T08:53:25.750Z,95994.81
2023-03-07T08:55:56.040Z,96001.13
2023-03-07T08:58:26.891Z,95993.38
2023-03-07T09:00:58.313Z,95980.16
2023-03-07T09:03:31.299Z,95999.97
2023-03-07T09:06:01.690Z,95983.28
2023-03-07T09:08:32.218Z,96004.41
2023-03-07T09:11:05.518Z,95980.88
2023-03-07T09:13:43.097Z,95984.66
2023-03-07T09:16:20.454Z,95977.72
2023-03-07T09:18:54.112Z,95980.41
2023-03-07T09:21:24.599Z,95980.25
2023-03-07T09:23:54.944Z,95983.75
2023-03-07T09:26:25.218Z,95973.00
2023-03-07T09:28:55.739Z,95974.22
2023-03-07T09:31:26.255Z,95961.44
2023-03-07T09:34:00.133Z,95980.41
2023-03-07T09:36:30.415Z,95949.41
2023-03-07T09:39:00.794Z,95958.38
2023-03-07T09:41:58.347Z,95948.16
2023-03-07T09:44:44.085Z,95928.13
2023-03-07T09:48:05.293Z,95940.03
2023-03-07T09:50:49.369Z,95939.06
2023-03-07T09:53:27.183Z,95939.03
2023-03-07T09:56:10.914Z,95928.13
2023-03-07T09:58:46.812Z,95929.13
2023-03-07T10:01:24.470Z,95924.88
2023-03-07T10:04:03.256Z,95939.22
2023-03-07T10:06:41.591Z,95933.25
2023-03-07T10:09:22.303Z,95932.06
2023-03-07T10:12:13.380Z,95957.50
2023-03-07T10:15:01.424Z,95920.88
2023-03-07T10:18:00.102Z,95912.91
2023-03-07T10:20:42.503Z,95911.53
2023-03-07T10:23:44.230Z,95929.28
2023-03-07T10:26:20.095Z,95910.19
2023-03-07T10:28:51.958Z,95907.94
2023-03-07T10:31:28.716Z,95902.84
2023-03-07T10:33:59.258Z,95912.88
2023-03-07T10:36:41.293Z,95924.78
2023-03-07T10:39:28.599Z,95898.47
2023-03-07T10:42:00.082Z,95904.47
2023-03-07T10:44:35.941Z,95891.75
2023-03-07T10:47:06.470Z,95896.25
2023-03-07T10:49:45.099Z,95890.81
2023-03-07T10:52:31.266Z,95903.09
2023-03-07T10:55:49.120Z,95875.75
2023-03-07T10:58:28.034Z,95895.03
2023-03-07T11:01:20.241Z,95879.03
2023-03-07T11:03:57.538Z,95869.22
2023-03-07T11:06:40.162Z,95862.38
2023-03-07T11:09:26.190Z,95865.81
2023-03-07T11:12:00.816Z,95859.16
2023-03-07T11:14:33.888Z,95855.13
2023-03-07T11:17:05.688Z,95848.66
2023-03-07T11:19:46.095Z,95847.56
2023-03-07T11:22:33.723Z,95858.44
2023-03-07T11:25:13.711Z,95874.31
2023-03-07T11:27:55.300Z,95833.34
2023-03-07T11:30:32.762Z,95822.72
2023-03-07T11:33:15.618Z,95809.78
2023-03-07T11:36:02.863Z,95817.41
2023-03-07T11:38:53.464Z,95811.69
2023-03-07T11:41:30.705Z,95857.38
2023-03-07T11:44:18.870Z,95840.44
2023-03-07T11:47:17.123Z,95802.47
2023-03-07T11:49:50.145Z,95817.66
2023-03-07T11:52:57.808Z,95810.00
2023-03-07T11:55:36.444Z,95804.47
2023-03-07T11:58:39.408Z,95808.53
2023-03-07T12:01:23.316Z,95813.94
2023-03-07T12:04:36.492Z,95804.09
2023-03-07T12:07:21.957Z,95848.41
2023-03-07T12:09:58.824Z,95806.75
2023-03-07T12:12:46.095Z,95811.34
2023-03-07T12:15:34.096Z,95799.03
2023-03-07T12:18:37.580Z,95809.63
2023-03-07T12:21:36.938Z,95799.56
2023-03-07T12:24:17.017Z,95808.91
2023-03-07T12:26:55.276Z,95780.47
2023-03-07T12:29:39.053Z,95791.50
2023-03-07T12:32:15.229Z,95784.81
2023-03-07T12:34:51.205Z,95817.16
2023-03-07T12:37:29.320Z,95795.59
2023-03-07T12:40:05.995Z,95784.22
2023-03-07T12:42:45.184Z,95793.56
2023-03-07T12:45:20.154Z,95790.28
2023-03-07T12:48:03.584Z,95779.00
2023-03-07T12:50:43.924Z,95783.13
2023-03-07T12:53:25.280Z,95785.38
2023-03-07T12:56:01.478Z,95787.19
2023-03-07T12:58:43.380Z,95791.38
2023-03-07T13:01:18.790Z,95813.41
2023-03-07T13:03:58.506Z,95778.06
2023-03-07T13:06:29.828Z,95831.00
2023-03-07T13:09:05.458Z,95803.56
2023-03-07T13:11:38.843Z,95819.09
2023-03-07T13:14:09.373Z,95806.22
2023-03-07T13:16:44.168Z,95793.06
2023-03-07T13:19:55.663Z,95796.13
2023-03-07T13:23:00.275Z,95793.88
2023-03-07T13:26:09.251Z,95787.84
2023-03-07T13:28:54.141Z,95777.34
2023-03-07T13:31:43.574Z,95783.09
2023-03-07T13:34:52.714Z,95790.59
2023-03-07T13:37:59.683Z,95813.38
2023-03-07T13:40:54.983Z,95777.09
2023-03-07T13:44:05.045Z,95774.81
2023-03-07T13:47:01.456Z,95783.09
2023-03-07T13:49:48.458Z,95784.34
2023-03-07T13:52:41.234Z,95782.31
2023-03-07T13:55:31.574Z,95790.81
2023-03-07T13:58:18.055Z,95786.56
2023-03-07T14:00:59.017Z,95768.81
2023-03-07T14:03:34.851Z,95778.81
2023-03-07T14:06:12.318Z,95770.56
2023-03-07T14:08:43.207Z,95781.56
2023-03-07T14:11:27.219Z,95769.81
2023-03-07T14:14:28.296Z,95779.56
2023-03-07T14:17:30.310Z,95841.94
2023-03-07T14:20:11.753Z,95801.41
2023-03-07T14:22:58.897Z,95785.84
2023-03-07T14:25:30.664Z,95792.63
2023-03-07T14:28:03.679Z,95787.59
2023-03-07T14:30:36.710Z,95766.28
2023-03-07T14:33:09.668Z,95763.03
2023-03-07T14:35:45.564Z,95789.13
2023-03-07T14:38:23.515Z,95774.31
2023-03-07T14:41:21.096Z,95766.31
2023-03-07T14:44:05.647Z,95763.56
2023-03-07T14:46:51.737Z,95763.31
2023-03-07T14:49:39.027Z,95774.31
2023-03-07T14:52:28.270Z,95764.06
2023-03-07T14:55:03.038Z,95781.09
2023-03-07T14:57:38.763Z,95769.53
2023-03-07T15:00:20.107Z,95759.75
2023-03-07T15:02:51.647Z,95772.75
2023-03-07T15:05:27.395Z,95761.00
2023-03-07T15:07:58.326Z,95758.72
2023-03-07T15:10:33.546Z,95772.22
2023-03-07T15:13:13.441Z,95764.72
2023-03-07T15:15:51.166Z,95752.00
2023-03-07T15:18:26.340Z,95750.00
2023-03-07T15:21:01.440Z,95747.97
2023-03-07T15:23:32.561Z,95747.72
2023-03-07T15:26:06.718Z,95744.97
2023-03-07T15:28:40.477Z,95750.94
2023-03-07T15:31:14.133Z,95748.66
2023-03-07T15:33:45.269Z,95741.44
2023-03-07T15:36:28.612Z,95740.69
2023-03-07T15:39:34.754Z,95749.91
2023-03-07T15:42:09.077Z,95737.91
2023-03-07T15:44:39.891Z,95740.69
2023-03-07T15:47:19.656Z,95739.47
2023-03-07T15:49:52.772Z,95752.44
2023-03-07T15:52:37.710Z,95743.41
2023-03-07T15:55:20.446Z,95751.41
2023-03-07T15:57:56.403Z,95751.66
2023-03-07T16:00:35.953Z,95747.59
2023-03-07T16:03:28.227Z,95760.84
2023-03-07T16:06:01.753Z,95746.59
2023-03-07T16:08:34.710Z,95766.59
2023-03-07T16:11:08.391Z,95761.53
2023-03-07T16:13:43.930Z,95750.06
2023-03-07T16:16:24.296Z,95748.75
2023-03-07T16:18:57.532Z,95760.75
2023-03-07T16:21:30.732Z,95773.19
2023-03-07T16:24:03.699Z,95766.19
2023-03-07T16:26:35.021Z,95761.44
2023-03-07T16:29:05.678Z,95770.88
2023-03-07T16:31:36.128Z,95772.59
2023-03-07T16:34:06.591Z,95764.63
2023-03-07T16:36:37.006Z,95758.63
2023-03-07T16:39:10.105Z,95763.88
2023-03-07T16:41:41.645Z,95779.63
2023-03-07T16:44:19.109Z,95785.00
2023-03-07T16:46:57.724Z,95769.28
2023-03-07T16:49:28.068Z,95775.78
2023-03-07T16:52:05.813Z,95774.78
2023-03-07T16:54:39.595Z,95773.75
2023-03-07T16:57:15.958Z,95787.28
2023-03-07T16:59:49.743Z,95783.22
2023-03-07T17:02:22.514Z,95795.72
2023-03-07T17:04:52.864Z,95780.22
2023-03-07T17:07:26.736Z,95779.69
2023-03-07T17:10:01.692Z,95784.66
2023-03-07T17:12:32.058Z,95783.09
2023-03-07T17:15:02.738Z,95786.56
2023-03-07T17:17:36.559Z,95786.41
2023-03-07T17:20:08.959Z,95802.13
2023-03-07T17:22:40.126Z,95792.53
2023-03-07T17:25:13.867Z,95803.97
2023-03-07T17:27:47.781Z,95790.47
2023-03-07T17:30:23.775Z,95798.50
2023-03-07T17:32:55.190Z,95798.00
2023-03-07T17:35:26.135Z,95821.41
2023-03-07T17:37:56.592Z,95809.63
2023-03-07T17:40:29.603Z,95810.88
2023-03-07T17:42:59.890Z,95818.28
2023-03-07T17:45:30.337Z,95812.34
2023-03-07T17:48:00.789Z,95809.88
2023-03-07T17:50:31.063Z,95817.06
2023-03-07T17:53:01.792Z,95822.28
2023-03-07T17:55:34.856Z,95819.53
2023-03-07T17:58:05.255Z,95818.50
2023-03-07T18:00:35.718Z,95823.69
2023-03-07T18:03:06.979Z,95821.78
2023-03-07T18:05:37.409Z,95827.56
2023-03-07T18:08:07.875Z,95839.81
2023-03-07T18:10:40.900Z,95837.25
2023-03-07T18:13:11.268Z,95832.44
2023-03-07T18:15:41.719Z,95832.69
2023-03-07T18:18:12.102Z,95834.97
2023-03-07T18:20:42.520Z,95835.50
2023-03-07T18:23:12.773Z,95837.31
2023-03-07T18:25:45.660Z,95836.75
2023-03-07T18:28:16.357Z,95834.34
2023-03-07T18:30:47.038Z,95836.13
2023-03-07T18:33:17.402Z,95851.38
2023-03-07T18:35:48.059Z,95834.06
2023-03-07T18:38:18.376Z,95840.00
2023-03-07T18:40:53.845Z,95846.41
2023-03-07T18:43:24.274Z,95850.38
2023-03-07T18:45:54.578Z,95842.25
2023-03-07T18:48:24.871Z,95850.38
2023-03-07T18:51:00.538Z,95847.88
2023-03-07T18:53:31.221Z,95842.38
2023-03-07T18:56:06.185Z,95837.13
2023-03-07T18:58:37.047Z,95831.41
2023-03-07T19:01:16.336Z,95837.31
2023-03-07T19:03:48.073Z,95832.59
2023-03-07T19:06:21.424Z,95843.56
2023-03-07T19:08:51.837Z,95828.50
2023-03-07T19:11:25.111Z,95835.34
2023-03-07T19:13:55.651Z,95846.94
2023-03-07T19:16:28.262Z,95848.19
2023-03-07T19:19:00.089Z,95832.25
2023-03-07T19:21:32.424Z,95843.44
2023-03-07T19:24:07.917Z,95850.63
2023-03-07T19:26:42.822Z,95835.69
2023-03-07T19:29:13.855Z,95840.00
2023-03-07T19:31:45.010Z,95841.75
2023-03-07T19:34:15.421Z,95834.53
2023-03-07T19:36:45.781Z,95835.59
2023-03-07T19:39:20.596Z,95838.50
2023-03-07T19:41:53.549Z,95846.88
2023-03-07T19:44:24.141Z,95843.38
2023-03-07T19:46:54.687Z,95840.91
2023-03-07T19:49:26.952Z,95851.03
2023-03-07T19:51:57.318Z,95844.69
2023-03-07T19:54:27.672Z,95847.19
2023-03-07T19:57:01.087Z,95843.03
2023-03-07T19:59:31.690Z,95844.34
2023-03-07T20:02:02.470Z,95851.03
2023-03-07T20:04:33.377Z,95849.38
2023-03-07T20:07:04.095Z,95847.53
2023-03-07T20:09:35.350Z,95853.22
2023-03-07T20:12:10.180Z,95857.06
2023-03-07T20:14:43.185Z,95868.13
2023-03-07T20:17:14.492Z,95871.50
2023-03-07T20:19:45.276Z,95876.38
2023-03-07T20:22:15.795Z,95877.63
2023-03-07T20:24:46.410Z,95879.81
2023-03-07T20:27:21.885Z,95886.19
2023-03-07T20:29:52.563Z,95898.25
2023-03-07T20:32:23.044Z,95891.47
2023-03-07T20:34:56.319Z,95893.44
2023-03-07T20:37:27.663Z,95899.59
2023-03-07T20:39:58.186Z,95899.50
2023-03-07T20:42:31.153Z,95910.13
2023-03-07T20:45:01.486Z,95906.56
2023-03-07T20:47:32.585Z,95914.03
2023-03-07T20:50:02.882Z,95913.28
2023-03-07T20:52:33.194Z,95923.00
2023-03-07T20:55:05.036Z,95917.91
2023-03-07T20:57:37.878Z,95925.28
2023-03-07T21:00:10.667Z,95923.22
2023-03-07T21:02:40.967Z,95920.41
2023-03-07T21:05:12.172Z,95925.78
2023-03-07T21:07:42.268Z,95931.16
2023-03-07T21:10:15.341Z,95934.84
2023-03-07T21:12:48.326Z,95931.72
2023-03-07T21:15:18.849Z,95932.66
2023-03-07T21:17:51.350Z,95942.88
2023-03-07T21:20:22.123Z,95948.06
2023-03-07T21:22:52.546Z,95940.41
2023-03-07T21:25:22.821Z,95949.66
2023-03-07T21:27:55.735Z,95941.69
2023-03-07T21:30:26.028Z,95954.66
2023-03-07T21:32:58.910Z,95949.91
2023-03-07T21:35:29.413Z,95947.78
2023-03-07T21:37:59.913Z,95953.78
2023-03-07T21:40:30.222Z,95962.16
2023-03-07T21:43:03.580Z,95968.00
2023-03-07T21:45:35.749Z,95969.97
2023-03-07T21:48:06.106Z,95978.47
2023-03-07T21:50:37.965Z,95978.47
2023-03-07T21:53:08.293Z,95976.84
2023-03-07T21:55:38.708Z,95991.28
2023-03-07T21:58:11.692Z,95988.09
2023-03-07T22:00:42.056Z,95993.84
2023-03-07T22:03:12.352Z,95993.66
2023-03-07T22:05:43.197Z,96001.69
2023-03-07T22:08:16.049Z,96001.00
2023-03-07T22:10:47.329Z,96004.66
2023-03-07T22:13:19.998Z,96004.09
2023-03-07T22:15:50.339Z,96004.84
2023-03-07T22:18:21.011Z,96015.38
2023-03-07T22:20:51.410Z,96022.00
2023-03-07T22:23:21.766Z,96024.09
2023-03-07T22:25:52.116Z,96030.31
2023-03-07T22:28:25.054Z,96034.28
2023-03-07T22:30:55.350Z,96033.91
2023-03-07T22:33:25.653Z,96031.88
2023-03-07T22:36:00.728Z,96028.25
2023-03-07T22:38:31.892Z,96035.75
2023-03-07T22:41:06.319Z,96035.88
2023-03-07T22:43:39.883Z,96041.28
2023-03-07T22:46:10.801Z,96036.09
2023-03-07T22:48:41.846Z,96034.22
2023-03-07T22:51:17.942Z,96040.84
2023-03-07T22:53:49.067Z,96044.66
2023-03-07T22:56:22.258Z,96037.84
2023-03-07T22:58:55.507Z,96045.63
2023-03-07T23:01:28.368Z,96036.75
2023-03-07T23:04:00.786Z,96042.25
2023-03-07T23:06:33.778Z,96049.69
2023-03-07T23:09:04.892Z,96059.28
2023-03-07T23:11:36.677Z,96060.94
2023-03-07T23:14:09.866Z,96065.88
2023-03-07T23:16:41.527Z,96075.88
2023-03-07T23:19:12.447Z,96072.81
2023-03-07T23:21:42.898Z,96070.53
2023-03-07T23:24:14.620Z,96072.34
2023-03-07T23:26:45.152Z,96079.34
2023-03-07T23:29:18.210Z,96087.38
2023-03-07T23:31:48.756Z,96080.88
2023-03-07T23:34:22.418Z,96091.69
2023-03-07T23:36:52.741Z,96086.94
2023-03-07T23:39:23.413Z,96086.31
2023-03-07T23:41:54.112Z,96087.06
2023-03-07T23:44:27.384Z,96090.09
2023-03-07T23:46:57.738Z,96086.31
2023-03-07T23:49:28.259Z,96093.47
2023-03-07T23:51:58.777Z,96086.53
2023-03-07T23:54:29.235Z,96098.59
2023-03-07T23:56:59.568Z,96097.69
2023-03-07T23:59:32.510Z,96107.53
